createdAt,value
2023-03-17T00:01:57.016Z,8.23
2023-03-17T00:04:25.727Z,4.72
2023-03-17T00:06:53.691Z,5.40
2023-03-17T00:09:22.436Z,5.55
2023-03-17T00:11:50.282Z,6.55
2023-03-17T00:14:19.660Z,5.13
2023-03-17T00:16:50.113Z,7.50
2023-03-17T00:19:32.543Z,5.13
2023-03-17T00:22:01.072Z,6.55
2023-03-17T00:24:29.251Z,6.82
2023-03-17T00:26:56.214Z,6.30
2023-03-17T00:29:24.298Z,9.23
2023-03-17T00:31:51.597Z,8.05
2023-03-17T00:34:19.716Z,6.00
2023-03-17T00:36:48.619Z,6.13
2023-03-17T00:41:43.772Z,8.35
2023-03-17T00:44:11.961Z,7.45
2023-03-17T00:46:41.604Z,5.35
2023-03-17T00:49:20.706Z,4.35
2023-03-17T00:51:48.812Z,6.00
2023-03-17T00:54:16.662Z,5.70
2023-03-17T00:56:44.325Z,5.68
2023-03-17T00:59:23.036Z,6.43
2023-03-17T01:01:50.101Z,6.18
2023-03-17T01:04:17.108Z,6.20
2023-03-17T01:06:44.365Z,7.90
2023-03-17T01:09:18.640Z,10.82
2023-03-17T01:11:46.106Z,5.05
2023-03-17T01:14:13.327Z,6.20
2023-03-17T01:16:40.882Z,5.43
2023-03-17T01:19:09.217Z,4.53
2023-03-17T01:21:36.676Z,4.45
2023-03-17T01:24:04.487Z,5.13
2023-03-17T01:26:31.607Z,4.53
2023-03-17T01:28:59.045Z,6.68
2023-03-17T01:31:26.431Z,3.88
2023-03-17T01:33:54.027Z,6.55
2023-03-17T01:36:20.981Z,5.57
2023-03-17T01:38:51.105Z,4.78
2023-03-17T01:41:21.110Z,5.57
2023-03-17T01:43:48.319Z,4.72
2023-03-17T01:46:18.232Z,3.85
2023-03-17T01:49:09.507Z,7.40
2023-03-17T01:52:01.167Z,6.47
2023-03-17T01:54:43.152Z,6.00
2023-03-17T01:57:17.070Z,7.38
2023-03-17T02:00:06.041Z,4.53
2023-03-17T02:02:37.103Z,5.03
2023-03-17T02:05:06.780Z,5.25
2023-03-17T02:07:34.052Z,3.67
2023-03-17T02:10:03.131Z,3.88
2023-03-17T02:12:30.825Z,4.30
2023-03-17T02:14:58.560Z,4.63
2023-03-17T02:17:27.375Z,4.15
2023-03-17T02:19:54.940Z,4.65
2023-03-17T02:22:22.001Z,5.10
2023-03-17T02:24:53.694Z,5.88
2023-03-17T02:27:23.141Z,3.28
2023-03-17T02:29:50.872Z,6.40
2023-03-17T02:32:19.780Z,5.45
2023-03-17T02:34:47.960Z,4.13
2023-03-17T02:37:16.045Z,4.93
2023-03-17T02:39:43.074Z,3.28
2023-03-17T02:42:10.305Z,4.90
2023-03-17T02:44:37.328Z,7.57
2023-03-17T02:47:05.056Z,5.97
2023-03-17T02:49:34.019Z,3.60
2023-03-17T02:52:01.567Z,7.95
2023-03-17T02:54:28.711Z,5.35
2023-03-17T02:56:55.640Z,4.18
2023-03-17T02:59:22.685Z,7.70
2023-03-17T03:01:50.825Z,5.30
2023-03-17T03:04:20.312Z,3.72
2023-03-17T03:06:47.780Z,5.65
2023-03-17T03:09:15.443Z,3.33
2023-03-17T03:11:42.965Z,4.75
2023-03-17T03:14:10.425Z,4.10
2023-03-17T03:16:38.070Z,2.78
2023-03-17T03:19:06.063Z,4.03
2023-03-17T03:21:33.002Z,5.22
2023-03-17T03:24:00.106Z,5.07
2023-03-17T03:26:27.379Z,6.38
2023-03-17T03:28:54.588Z,4.03
2023-03-17T03:31:21.860Z,4.07
2023-03-17T03:33:48.814Z,4.45
2023-03-17T03:36:15.724Z,5.78
2023-03-17T03:38:42.832Z,4.90
2023-03-17T03:41:10.092Z,5.10
2023-03-17T03:43:37.136Z,5.13
2023-03-17T03:46:05.211Z,6.18
2023-03-17T03:48:32.444Z,5.68
2023-03-17T03:51:01.718Z,5.10
2023-03-17T03:53:29.657Z,2.63
2023-03-17T03:55:56.972Z,5.32
2023-03-17T03:58:23.915Z,5.32
2023-03-17T04:00:51.275Z,4.90
2023-03-17T04:03:18.478Z,6.10
2023-03-17T04:05:45.629Z,4.60
2023-03-17T04:08:12.595Z,2.97
2023-03-17T04:10:39.523Z,4.45
2023-03-17T04:13:06.655Z,4.32
2023-03-17T04:15:34.061Z,5.00
2023-03-17T04:18:01.208Z,4.22
2023-03-17T04:20:28.356Z,5.75
2023-03-17T04:22:56.289Z,4.60
2023-03-17T04:25:23.300Z,5.18
2023-03-17T04:27:50.144Z,9.63
2023-03-17T04:30:18.003Z,3.50
2023-03-17T04:32:46.434Z,5.07
2023-03-17T04:35:15.636Z,3.88
2023-03-17T04:37:42.594Z,9.25
2023-03-17T04:40:11.167Z,4.45
2023-03-17T04:42:38.384Z,6.53
2023-03-17T04:45:06.987Z,5.85
2023-03-17T04:47:34.049Z,8.93
2023-03-17T04:50:01.535Z,4.82
2023-03-17T04:52:28.695Z,3.90
2023-03-17T04:54:55.793Z,5.43
2023-03-17T04:57:24.474Z,4.95
2023-03-17T04:59:52.004Z,5.80
2023-03-17T05:02:19.107Z,6.97
2023-03-17T05:04:46.369Z,6.28
2023-03-17T05:07:13.635Z,4.70
2023-03-17T05:09:40.789Z,6.35
2023-03-17T05:12:09.206Z,5.63
2023-03-17T05:14:37.032Z,7.93
2023-03-17T05:17:04.141Z,3.78
2023-03-17T05:19:31.124Z,6.90
2023-03-17T05:21:58.003Z,10.13
2023-03-17T05:24:25.162Z,9.65
2023-03-17T05:26:52.028Z,7.18
2023-03-17T05:29:18.999Z,5.80
2023-03-17T05:31:46.130Z,10.10
2023-03-17T05:34:13.260Z,8.80
2023-03-17T05:36:40.307Z,7.43
2023-03-17T05:39:07.442Z,12.25
2023-03-17T05:41:34.419Z,7.35
2023-03-17T05:44:01.582Z,11.80
2023-03-17T05:46:28.597Z,14.80
2023-03-17T05:48:55.863Z,12.60
2023-03-17T05:51:22.974Z,10.95
2023-03-17T05:53:49.802Z,5.93
2023-03-17T05:56:17.284Z,8.00
2023-03-17T05:58:44.221Z,7.13
2023-03-17T06:01:11.115Z,4.07
2023-03-17T06:03:41.214Z,6.75
2023-03-17T06:06:09.311Z,5.95
2023-03-17T06:08:36.150Z,7.50
2023-03-17T06:11:03.056Z,6.93
2023-03-17T06:13:30.433Z,6.68
2023-03-17T06:15:57.612Z,8.10
2023-03-17T06:18:24.557Z,6.68
2023-03-17T06:20:51.678Z,10.30
2023-03-17T06:23:19.032Z,9.27
2023-03-17T06:25:46.374Z,11.00
2023-03-17T06:28:13.467Z,5.93
2023-03-17T06:30:40.959Z,5.53
2023-03-17T06:33:08.350Z,5.32
2023-03-17T06:35:36.052Z,7.82
2023-03-17T06:38:03.574Z,7.43
2023-03-17T06:40:31.161Z,8.35
2023-03-17T06:42:58.829Z,8.20
2023-03-17T06:45:26.062Z,7.32
2023-03-17T06:47:52.978Z,11.38
2023-03-17T06:50:20.355Z,8.38
2023-03-17T06:52:47.306Z,10.10
2023-03-17T06:55:15.132Z,12.40
2023-03-17T08:46:12.980Z,10.43
2023-03-17T08:48:41.538Z,9.63
2023-03-17T08:51:09.367Z,10.38
2023-03-17T08:53:37.454Z,10.70
2023-03-17T08:56:05.330Z,14.68
2023-03-17T08:58:32.252Z,13.80
2023-03-17T09:01:00.682Z,6.72
2023-03-17T09:03:28.259Z,7.05
2023-03-17T09:05:55.789Z,10.65
2023-03-17T09:08:23.090Z,11.07
2023-03-17T09:10:50.618Z,10.10
2023-03-17T09:13:17.825Z,9.32
2023-03-17T09:15:44.986Z,10.38
2023-03-17T09:18:12.975Z,11.25
2023-03-17T09:20:40.405Z,9.45
2023-03-17T09:23:09.659Z,8.07
2023-03-17T09:25:38.562Z,12.13
2023-03-17T09:28:07.295Z,7.93
2023-03-17T09:30:35.210Z,14.68
2023-03-17T09:33:02.174Z,7.60
2023-03-17T09:35:31.369Z,7.93
2023-03-17T09:37:58.628Z,10.10
2023-03-17T09:40:35.903Z,12.60
2023-03-17T09:43:23.784Z,12.85
2023-03-17T09:45:51.672Z,12.18
2023-03-17T09:48:50.237Z,12.18
2023-03-17T09:51:19.605Z,10.00
2023-03-17T09:54:05.484Z,10.38
2023-03-17T09:59:08.855Z,14.98
2023-03-17T10:01:44.227Z,11.88
2023-03-17T10:04:12.416Z,8.32
2023-03-17T10:06:46.692Z,10.75
2023-03-17T10:09:47.060Z,11.25
2023-03-17T10:12:26.022Z,9.98
2023-03-17T10:15:06.828Z,8.13
2023-03-17T10:17:40.792Z,14.00
2023-03-17T10:20:26.186Z,9.70
2023-03-17T10:23:03.716Z,14.80
2023-03-17T10:25:33.149Z,9.32
2023-03-17T10:28:16.700Z,11.60
2023-03-17T10:30:44.210Z,10.60
2023-03-17T10:33:11.473Z,10.02
2023-03-17T10:35:39.696Z,8.23
2023-03-17T10:38:19.045Z,8.57
2023-03-17T10:40:59.547Z,12.02
2023-03-17T10:43:36.267Z,6.32
2023-03-17T10:46:06.045Z,13.10
2023-03-17T10:48:38.333Z,11.45
2023-03-17T10:51:09.757Z,8.30
2023-03-17T10:53:44.503Z,9.82
2023-03-17T10:56:22.272Z,7.60
2023-03-17T10:58:51.632Z,7.97
2023-03-17T11:01:29.541Z,16.30
2023-03-17T11:03:57.567Z,11.25
2023-03-17T11:06:37.090Z,8.82
2023-03-17T11:09:09.833Z,8.45
2023-03-17T11:11:48.017Z,9.82
2023-03-17T11:14:18.803Z,11.98
2023-03-17T11:17:19.479Z,7.47
2023-03-17T11:20:07.020Z,7.70
2023-03-17T11:22:43.050Z,9.63
2023-03-17T11:25:13.433Z,10.32
2023-03-17T11:27:52.168Z,10.32
2023-03-17T11:30:22.271Z,12.93
2023-03-17T11:33:07.367Z,12.10
2023-03-17T11:35:51.523Z,8.40
2023-03-17T11:38:30.958Z,10.10
2023-03-17T11:41:15.196Z,11.20
2023-03-17T11:43:51.342Z,8.40
2023-03-17T11:46:43.996Z,11.55
2023-03-17T11:49:16.668Z,16.08
2023-03-17T11:51:52.413Z,11.23
2023-03-17T11:54:37.518Z,11.80
2023-03-17T11:57:11.346Z,12.73
2023-03-17T11:59:59.959Z,13.70
2023-03-17T12:02:41.153Z,9.82
2023-03-17T12:05:13.392Z,9.35
2023-03-17T12:07:54.884Z,11.43
2023-03-17T12:10:25.758Z,8.32
2023-03-17T12:13:03.534Z,8.73
2023-03-17T12:15:38.758Z,10.77
2023-03-17T12:18:25.647Z,7.88
2023-03-17T12:21:11.978Z,8.07
2023-03-17T12:23:49.653Z,9.27
2023-03-17T12:26:25.737Z,8.60
2023-03-17T12:29:04.455Z,8.15
2023-03-17T12:32:11.634Z,10.52
2023-03-17T12:34:52.024Z,7.72
2023-03-17T12:37:19.984Z,8.27
2023-03-17T12:40:14.568Z,8.98
2023-03-17T12:43:01.131Z,11.07
2023-03-17T12:46:04.703Z,11.27
2023-03-17T12:49:00.518Z,8.27
2023-03-17T12:51:46.168Z,6.85
2023-03-17T12:56:48.401Z,12.10
2023-03-17T12:59:19.188Z,9.55
2023-03-17T13:01:53.313Z,10.35
2023-03-17T13:04:38.425Z,10.05
2023-03-17T13:07:17.324Z,6.93
2023-03-17T13:09:47.018Z,8.50
2023-03-17T13:12:42.189Z,8.82
2023-03-17T13:15:38.153Z,7.10
2023-03-17T13:18:14.631Z,13.15
2023-03-17T13:20:56.631Z,11.18
2023-03-17T13:23:46.163Z,11.70
2023-03-17T13:26:22.374Z,10.05
2023-03-17T13:28:51.860Z,8.63
2023-03-17T13:31:29.146Z,9.55
2023-03-17T13:34:02.845Z,6.60
2023-03-17T13:36:44.179Z,6.80
2023-03-17T13:39:31.180Z,8.60
2023-03-17T13:42:17.678Z,12.77
2023-03-17T13:44:54.662Z,9.82
2023-03-17T13:47:42.801Z,8.65
2023-03-17T13:50:17.643Z,10.40
2023-03-17T13:52:56.869Z,6.18
2023-03-17T13:55:24.000Z,8.32
2023-03-17T13:58:11.415Z,5.32
2023-03-17T14:00:47.628Z,12.73
2023-03-17T14:03:29.588Z,9.07
2023-03-17T14:05:56.987Z,11.40
2023-03-17T14:08:29.766Z,10.18
2023-03-17T14:11:00.662Z,6.20
2023-03-17T14:13:37.904Z,7.68
2023-03-17T14:16:07.101Z,12.15
2023-03-17T14:18:40.411Z,11.32
2023-03-17T14:21:19.177Z,5.13
2023-03-17T14:23:57.008Z,8.13
2023-03-17T14:26:26.899Z,9.80
2023-03-17T14:28:54.301Z,8.32
2023-03-17T14:31:27.492Z,18.27
2023-03-17T14:34:01.350Z,12.10
2023-03-17T14:36:32.600Z,8.38
2023-03-17T14:38:59.511Z,11.15
2023-03-17T14:41:28.925Z,10.57
2023-03-17T14:44:00.359Z,8.27
2023-03-17T14:46:35.625Z,8.05
2023-03-17T14:49:10.374Z,10.38
2023-03-17T14:51:39.681Z,7.95
2023-03-17T14:54:16.245Z,7.15
2023-03-17T14:56:47.415Z,9.20
2023-03-17T14:59:30.623Z,7.85
2023-03-17T15:02:00.807Z,8.75
2023-03-17T15:04:33.333Z,9.77
2023-03-17T15:07:04.054Z,7.10
2023-03-17T15:09:33.682Z,8.82
2023-03-17T15:12:09.365Z,6.47
2023-03-17T15:14:40.029Z,11.55
2023-03-17T15:17:17.123Z,8.68
2023-03-17T15:19:47.637Z,8.52
2023-03-17T15:22:30.802Z,7.82
2023-03-17T15:25:18.684Z,10.18
2023-03-17T15:27:46.752Z,6.25
2023-03-17T15:30:14.574Z,6.82
2023-03-17T15:32:41.577Z,7.50
2023-03-17T15:35:13.229Z,5.95
2023-03-17T15:37:41.203Z,7.45
2023-03-17T15:40:09.736Z,7.97
2023-03-17T15:42:39.758Z,8.27
2023-03-17T15:45:07.922Z,8.38
2023-03-17T15:47:37.760Z,6.93
2023-03-17T15:50:15.750Z,10.30
2023-03-17T15:52:43.544Z,5.00
2023-03-17T15:55:31.209Z,5.82
2023-03-17T15:57:58.867Z,8.93
2023-03-17T16:00:29.716Z,7.07
2023-03-17T16:03:01.576Z,7.05
2023-03-17T16:05:31.315Z,6.68
2023-03-17T16:07:58.347Z,9.65
2023-03-17T16:10:30.979Z,5.22
2023-03-17T16:12:58.756Z,9.98
2023-03-17T16:15:31.864Z,9.43
2023-03-17T16:18:08.288Z,8.00
2023-03-17T16:20:43.597Z,5.93
2023-03-17T16:23:27.576Z,9.77
2023-03-17T16:25:59.292Z,13.18
2023-03-17T16:28:35.665Z,11.93
2023-03-17T16:31:13.600Z,12.18
2023-03-17T16:33:41.051Z,14.40
2023-03-17T16:36:13.339Z,11.18
2023-03-17T16:38:40.239Z,32.53
2023-03-17T16:41:19.540Z,25.10
2023-03-17T16:43:51.174Z,14.10
2023-03-17T16:46:19.641Z,31.13
2023-03-17T16:48:48.486Z,14.48
2023-03-17T16:51:15.879Z,8.10
2023-03-17T16:53:43.118Z,9.52
2023-03-17T16:56:15.498Z,9.40
2023-03-17T16:58:42.757Z,9.27
2023-03-17T17:01:19.558Z,10.98
2023-03-17T17:03:46.881Z,6.97
2023-03-17T17:06:14.615Z,6.57
2023-03-17T17:08:43.670Z,9.80
2023-03-17T17:11:13.095Z,12.43
2023-03-17T17:13:41.652Z,12.88
2023-03-17T17:16:27.134Z,7.88
2023-03-17T17:18:54.609Z,13.27
2023-03-17T17:21:21.913Z,15.13
2023-03-17T17:23:50.164Z,8.77
2023-03-17T17:26:17.996Z,8.50
2023-03-17T17:28:45.318Z,7.82
2023-03-17T17:31:12.535Z,7.90
2023-03-17T17:33:40.135Z,8.27
2023-03-17T17:36:13.916Z,8.18
2023-03-17T17:38:41.355Z,7.80
2023-03-17T17:41:11.096Z,7.90
2023-03-17T17:43:38.858Z,10.68
2023-03-17T17:46:21.428Z,7.65
2023-03-17T17:48:48.843Z,12.23
2023-03-17T17:51:16.056Z,12.27
2023-03-17T17:53:43.022Z,8.70
2023-03-17T17:56:15.036Z,10.50
2023-03-17T17:58:42.667Z,12.02
2023-03-17T18:01:13.011Z,8.30
2023-03-17T18:03:42.932Z,9.23
2023-03-17T18:06:10.286Z,9.02
2023-03-17T18:08:37.225Z,10.75
2023-03-17T18:11:04.507Z,12.07
2023-03-17T18:13:36.179Z,15.10
2023-03-17T18:16:04.031Z,9.90
2023-03-17T18:18:32.819Z,9.80
2023-03-17T18:20:59.966Z,10.23
2023-03-17T18:23:27.453Z,9.30
2023-03-17T18:26:00.748Z,10.93
2023-03-17T18:28:28.400Z,14.80
2023-03-17T18:30:57.958Z,11.60
2023-03-17T18:33:25.027Z,12.25
2023-03-17T18:35:52.322Z,12.73
2023-03-17T18:38:19.485Z,9.38
2023-03-17T18:40:46.603Z,10.75
2023-03-17T18:43:13.603Z,17.13
2023-03-17T18:45:40.586Z,11.95
2023-03-17T18:48:07.585Z,12.13
2023-03-17T18:50:34.833Z,11.93
2023-03-17T18:53:02.482Z,14.35
2023-03-17T18:55:29.475Z,10.80
2023-03-17T18:57:56.406Z,9.60
2023-03-17T19:00:25.321Z,10.52
2023-03-17T19:02:52.636Z,11.70
2023-03-17T19:05:20.374Z,12.60
2023-03-17T19:07:47.548Z,11.45
2023-03-17T19:10:17.889Z,12.52
2023-03-17T19:12:47.182Z,17.30
2023-03-17T19:15:14.848Z,14.38
2023-03-17T19:17:42.397Z,13.88
2023-03-17T19:20:10.157Z,14.88
2023-03-17T19:22:36.983Z,13.55
2023-03-17T19:25:04.468Z,19.63
2023-03-17T19:27:31.488Z,12.18
2023-03-17T19:29:58.472Z,17.30
2023-03-17T19:32:25.453Z,14.75
2023-03-17T19:34:52.611Z,12.15
2023-03-17T19:37:19.569Z,14.20
2023-03-17T19:39:47.282Z,14.50
2023-03-17T19:42:14.214Z,14.80
2023-03-17T19:44:41.243Z,12.73
2023-03-17T19:47:08.515Z,13.43
2023-03-17T19:49:37.346Z,12.88
2023-03-17T19:52:07.728Z,13.80
2023-03-17T19:54:35.797Z,12.13
2023-03-17T19:57:02.839Z,14.10
2023-03-17T19:59:29.673Z,19.75
2023-03-17T20:01:57.115Z,19.45
2023-03-17T20:04:24.328Z,15.13
2023-03-17T20:06:55.685Z,19.30
2023-03-17T20:09:25.712Z,17.92
2023-03-17T20:11:53.553Z,19.05
2023-03-17T20:14:21.161Z,15.07
2023-03-17T20:16:48.838Z,14.45
2023-03-17T20:19:16.804Z,14.98
2023-03-17T20:21:43.714Z,19.27
2023-03-17T20:24:13.094Z,13.68
2023-03-17T20:26:41.400Z,17.15
2023-03-17T20:29:10.004Z,17.20
2023-03-17T20:31:39.239Z,16.85
2023-03-17T20:34:06.301Z,17.73
2023-03-17T20:36:33.246Z,14.77
2023-03-17T20:39:00.713Z,19.08
2023-03-17T20:41:27.683Z,13.50
2023-03-17T20:43:54.557Z,14.15
2023-03-17T20:46:24.075Z,14.32
2023-03-17T20:48:59.008Z,15.75
2023-03-17T20:51:26.765Z,13.48
2023-03-17T20:53:55.214Z,19.88
2023-03-17T20:56:24.164Z,17.23
2023-03-17T20:58:53.368Z,14.45
2023-03-17T21:01:21.486Z,21.88
2023-03-17T21:03:49.202Z,17.83
2023-03-17T21:06:17.225Z,18.60
2023-03-17T21:08:46.091Z,17.58
2023-03-17T21:11:19.536Z,14.95
2023-03-17T21:13:47.096Z,19.90
2023-03-17T21:16:19.921Z,17.67
2023-03-17T21:18:47.613Z,16.65
2023-03-17T21:21:14.882Z,17.65
2023-03-17T21:23:41.916Z,19.08
2023-03-17T21:26:09.910Z,16.27
2023-03-17T21:28:41.398Z,21.48
2023-03-17T21:31:09.830Z,20.33
2023-03-17T21:33:37.371Z,20.17
2023-03-17T21:36:05.197Z,18.95
2023-03-17T21:38:32.202Z,16.00
2023-03-17T21:41:01.870Z,19.73
2023-03-17T21:43:28.909Z,17.52
2023-03-17T21:45:56.289Z,19.83
2023-03-17T21:48:23.168Z,18.77
2023-03-17T21:50:50.142Z,17.85
2023-03-17T21:53:17.019Z,18.88
2023-03-17T21:55:44.113Z,17.75
2023-03-17T21:58:11.706Z,19.52
2023-03-17T22:00:45.096Z,19.42
2023-03-17T22:03:13.024Z,14.98
2023-03-17T22:05:39.928Z,20.77
2023-03-17T22:08:06.916Z,16.50
2023-03-17T22:10:34.448Z,13.90
2023-03-17T22:13:01.588Z,19.67
2023-03-17T22:15:29.200Z,19.23
2023-03-17T22:17:57.788Z,19.85
2023-03-17T22:20:24.733Z,17.10
2023-03-17T22:22:51.626Z,14.60
2023-03-17T22:25:18.847Z,16.70
2023-03-17T22:27:45.900Z,19.88
2023-03-17T22:30:13.065Z,16.95
2023-03-17T22:32:40.220Z,16.75
2023-03-17T22:35:07.440Z,19.02
2023-03-17T22:37:34.291Z,19.42
2023-03-17T22:40:05.156Z,17.20
2023-03-17T22:42:32.959Z,18.10
2023-03-17T22:44:59.928Z,18.08
2023-03-17T22:47:26.936Z,19.30
2023-03-17T22:49:53.779Z,19.88
2023-03-17T22:52:20.713Z,19.90
2023-03-17T22:54:47.732Z,17.00
2023-03-17T22:57:15.031Z,18.27
2023-03-17T22:59:41.986Z,18.20
2023-03-17T23:02:09.098Z,19.15
2023-03-17T23:04:36.977Z,18.88
2023-03-17T23:07:05.514Z,16.48
2023-03-17T23:09:32.847Z,15.32
2023-03-17T23:12:00.542Z,18.25
2023-03-17T23:14:27.586Z,17.33
2023-03-17T23:16:54.808Z,19.42
2023-03-17T23:19:22.271Z,17.63
2023-03-17T23:21:49.167Z,18.30
2023-03-17T23:24:16.056Z,22.27
2023-03-17T23:26:42.916Z,24.42
2023-03-17T23:29:09.952Z,25.98
2023-03-17T23:31:37.173Z,18.17
2023-03-17T23:34:06.654Z,17.42
2023-03-17T23:36:35.136Z,17.58
2023-03-17T23:39:02.563Z,17.52
2023-03-17T23:41:29.424Z,23.27
2023-03-17T23:43:56.786Z,18.17
2023-03-17T23:46:23.779Z,15.57
2023-03-17T23:48:50.871Z,17.55
2023-03-17T23:51:18.584Z,17.35
2023-03-17T23:53:46.545Z,20.25
2023-03-17T23:56:13.713Z,15.25
2023-03-17T23:58:43.481Z,20.02
